Tropical Cyclones
[Index]
Main Index Home Page Stock Weather Photos Extreme Storms Discussion Storm News and Storm Chasing Reports Tropical Cyclones / Hurricanes / Typhoons Weather Data and Links Wild Fires / Bushfires Weather Observation Techniques Weather Picture Catalogue Tornado Pictures and Reports Stock Video Footage and DVDs for sale
Season 2005-2006 Tropical Cyclone DIWA Track Map
Season 2005-2006 Summaries (Operational Data): [AU] [SIO] [SPAC] [SH]
<<- Previous TC | 2005-2006 Season | Next TC ->>

click for intensity scale information  Lat/long Grid: Show Hide

 Date Labels: Show Hide

Operational Tropical Cyclone Data : JTWC Advisories

Name: DIWA
Number: 0616

02 Mar 2006 06:00 UTC to 10 Mar 2006 12:00 UTC

    date/time    lat    long     hPa   cat  kts
2006-03-02 06   13.0    58.0    1002         20          
2006-03-02 12   13.2    57.3    1002         25          
2006-03-02 18   13.3    57.5     999         25          
2006-03-03 00   13.9    57.6     999         25          
2006-03-03 06   15.6    58.0     997         30          
2006-03-03 12   16.4    57.3     995    1    35          
2006-03-03 18   16.8    56.9     995    1    35          
2006-03-04 00   17.7    56.7     993    1    40          
2006-03-04 06   18.3    55.5     993    1    35          
2006-03-04 12   18.5    54.6     993    1    35          
2006-03-04 18   18.8    53.9     993    1    35          
2006-03-05 00   19.1    53.8     993    1    35          
2006-03-05 06   19.5    53.7     993    1    35          
2006-03-05 12   21.0    54.0     993    1    35          
2006-03-05 18   21.7    53.8     993    1    35          
2006-03-06 00   22.1    53.0     993    1    35          
2006-03-06 06   22.5    52.2     993    1    40          
2006-03-06 12   23.1    52.4     993    1    40          
2006-03-06 18   23.7    52.5     990    1    40          
2006-03-07 00   23.5    53.4     985    2    50          
2006-03-07 06   24.2    53.4     985    2    50          
2006-03-07 12   24.6    53.8     985    2    50          
2006-03-07 18   25.2    54.6     985    2    50          
2006-03-08 00   26.2    54.9     985    2    50          
2006-03-08 06   27.0    56.5     980    2    55          
2006-03-08 12   28.9    57.4     980    2    60          
2006-03-08 18   30.4    58.9     980    2    60          
2006-03-09 00   32.3    59.6     985    2    55          
2006-03-09 06   33.7    60.8     985    2    60          
2006-03-09 12   35.2    62.5     985    2    60          
2006-03-09 18   35.9    64.5     985    2    60          
2006-03-10 00   36.5    67.0     985    2    55          
2006-03-10 06   36.7    69.3     987    1    40          
2006-03-10 12   37.5    72.5     987    1    40          
Winds are 10-min average.

Tropical cyclone tracks developed by Michael Bath using operational warnings and advisories and Google Maps.


[Australian Severe Weather index] [Copyright Notice] [Email Contacts] [Search This Site] [Privacy Policy]
Document: tropical_cyclone_diwa.htm Updated: 28 May 2013